createdAt,value
2022-08-07T00:00:35.572Z,2.58
2022-08-07T00:03:02.759Z,2.75
2022-08-07T00:05:29.298Z,2.45
2022-08-07T00:08:00.080Z,4.30
2022-08-07T00:10:29.708Z,2.85
2022-08-07T00:13:00.137Z,2.83
2022-08-07T00:15:38.235Z,3.45
2022-08-07T00:18:19.767Z,4.70
2022-08-07T00:20:51.246Z,3.95
2022-08-07T00:23:18.166Z,3.65
2022-08-07T00:25:58.856Z,3.25
2022-08-07T00:28:31.774Z,3.28
2022-08-07T00:31:12.747Z,3.92
2022-08-07T00:33:43.134Z,4.57
2022-08-07T00:36:14.012Z,7.65
2022-08-07T00:38:40.855Z,4.13
2022-08-07T00:41:14.502Z,3.25
2022-08-07T00:44:00.496Z,3.85
2022-08-07T00:46:28.607Z,3.35
2022-08-07T00:48:55.111Z,2.40
2022-08-07T00:51:21.520Z,3.17
2022-08-07T00:53:50.683Z,2.88
2022-08-07T00:56:23.424Z,3.60
2022-08-07T00:58:56.950Z,2.78
2022-08-07T01:01:23.599Z,3.03
2022-08-07T01:03:55.333Z,3.00
2022-08-07T01:06:25.156Z,2.92
2022-08-07T01:08:53.964Z,2.60
2022-08-07T01:12:24.069Z,6.50
2022-08-07T01:14:10.260Z,3.65
2022-08-07T01:16:37.560Z,5.50
2022-08-07T01:19:05.001Z,3.15
2022-08-07T01:21:46.582Z,3.95
2022-08-07T01:24:13.964Z,6.28
2022-08-07T01:26:40.652Z,3.33
2022-08-07T01:29:08.361Z,3.30
2022-08-07T01:31:42.827Z,3.92
2022-08-07T01:34:14.897Z,4.60
2022-08-07T01:36:44.127Z,3.80
2022-08-07T01:39:17.825Z,6.03
2022-08-07T01:42:07.899Z,4.70
2022-08-07T01:44:39.695Z,4.63
2022-08-07T01:47:14.516Z,3.60
2022-08-07T01:49:53.606Z,4.57
2022-08-07T01:52:23.779Z,6.00
2022-08-07T01:54:54.800Z,4.38
2022-08-07T01:57:25.885Z,3.83
2022-08-07T01:59:56.318Z,4.50
2022-08-07T02:02:32.585Z,5.15
2022-08-07T02:05:43.006Z,4.85
2022-08-07T02:08:13.943Z,3.83
2022-08-07T02:10:42.454Z,6.72
2022-08-07T02:13:12.224Z,4.93
2022-08-07T02:15:49.345Z,4.80
2022-08-07T02:18:21.265Z,4.30
2022-08-07T02:20:57.347Z,4.90
2022-08-07T02:23:25.561Z,3.90
2022-08-07T02:26:26.721Z,4.10
2022-08-07T02:28:40.554Z,6.93
2022-08-07T02:31:18.681Z,4.97
2022-08-07T02:34:04.022Z,7.93
2022-08-07T02:36:42.426Z,8.10
2022-08-07T02:39:17.349Z,7.00
2022-08-07T02:42:03.850Z,5.35
2022-08-07T02:44:46.489Z,6.72
2022-08-07T02:47:29.309Z,5.55
2022-08-07T02:50:12.317Z,4.28
2022-08-07T02:52:44.072Z,4.88
2022-08-07T02:55:28.801Z,3.60
2022-08-07T02:58:10.313Z,5.63
2022-08-07T03:03:07.601Z,6.03
2022-08-07T03:05:43.598Z,6.53
2022-08-07T03:08:13.133Z,5.72
2022-08-07T03:10:47.092Z,6.35
2022-08-07T03:13:19.306Z,6.50
2022-08-07T03:15:58.523Z,4.85
2022-08-07T03:18:34.729Z,4.95
2022-08-07T03:21:05.227Z,9.77
2022-08-07T03:24:19.761Z,8.65
2022-08-07T03:26:26.350Z,8.23
2022-08-07T03:28:54.200Z,8.57
2022-08-07T03:31:24.585Z,9.93
2022-08-07T03:33:59.457Z,9.38
2022-08-07T03:36:28.746Z,11.25
2022-08-07T03:38:58.799Z,8.18
2022-08-07T03:41:42.607Z,7.63
2022-08-07T03:44:15.350Z,6.78
2022-08-07T03:47:14.023Z,7.28
2022-08-07T03:49:30.406Z,6.85
2022-08-07T03:52:01.900Z,5.45
2022-08-07T03:54:35.336Z,6.38
2022-08-07T03:57:07.140Z,6.47
2022-08-07T03:59:36.705Z,10.40
2022-08-07T04:02:14.362Z,6.45
2022-08-07T04:04:45.240Z,9.38
2022-08-07T04:07:17.479Z,6.72
2022-08-07T04:09:50.518Z,5.78
2022-08-07T04:12:27.252Z,8.30
2022-08-07T04:14:56.909Z,6.20
2022-08-07T04:17:23.587Z,9.07
2022-08-07T04:20:14.258Z,12.70
2022-08-07T04:22:53.453Z,12.35
2022-08-07T04:25:29.512Z,11.90
2022-08-07T04:28:00.350Z,15.38
2022-08-07T04:30:43.650Z,13.65
2022-08-07T04:33:20.157Z,14.93
2022-08-07T04:35:51.205Z,14.88
2022-08-07T04:38:21.931Z,10.20
2022-08-07T04:40:51.898Z,12.43
2022-08-07T04:44:10.130Z,10.35
2022-08-07T04:46:34.814Z,11.63
2022-08-07T04:49:18.230Z,13.35
2022-08-07T04:52:00.102Z,9.10
2022-08-07T04:54:30.100Z,8.57
2022-08-07T04:58:13.160Z,10.75
2022-08-07T05:00:12.490Z,9.85
2022-08-07T05:02:54.711Z,13.73
2022-08-07T05:05:53.890Z,14.25
2022-08-07T05:08:17.993Z,15.05
2022-08-07T05:11:24.323Z,11.18
2022-08-07T05:14:55.215Z,14.20
2022-08-07T05:16:59.118Z,15.23
2022-08-07T05:19:44.394Z,14.70
2022-08-07T05:22:12.889Z,11.60
2022-08-07T05:24:57.085Z,12.60
2022-08-07T05:28:03.449Z,12.32
2022-08-07T05:30:15.973Z,17.42
2022-08-07T05:35:24.084Z,13.50
2022-08-07T05:38:09.854Z,16.95
2022-08-07T05:40:50.712Z,22.13
2022-08-07T05:43:19.816Z,20.73
2022-08-07T05:46:06.281Z,20.67
2022-08-07T05:48:34.071Z,16.75
2022-08-07T05:51:01.677Z,16.23
2022-08-07T05:54:08.509Z,17.58
2022-08-07T05:56:20.297Z,19.20
2022-08-07T05:58:58.796Z,16.25
2022-08-07T06:01:26.809Z,13.32
2022-08-07T06:04:02.736Z,10.57
2022-08-07T06:06:36.330Z,13.80
2022-08-07T06:09:06.674Z,13.05
2022-08-07T06:11:37.952Z,12.43
2022-08-07T06:14:12.047Z,12.55
2022-08-07T06:16:44.233Z,11.27
2022-08-07T06:19:51.922Z,12.55
2022-08-07T06:22:15.726Z,8.15
2022-08-07T06:24:58.425Z,7.45
2022-08-07T06:28:00.336Z,8.48
2022-08-07T06:30:24.095Z,10.00
2022-08-07T06:32:59.164Z,7.90
2022-08-07T06:35:38.992Z,9.35
2022-08-07T06:38:19.922Z,7.43
2022-08-07T06:40:50.109Z,6.53
2022-08-07T06:43:21.593Z,14.90
2022-08-07T06:46:05.194Z,7.28
2022-08-07T06:48:38.446Z,7.72
2022-08-07T06:51:10.198Z,8.23
2022-08-07T06:55:29.758Z,7.57
2022-08-07T06:56:49.749Z,6.07
2022-08-07T07:00:13.185Z,5.60
2022-08-07T07:02:49.266Z,5.43
2022-08-07T07:05:06.971Z,9.13
2022-08-07T07:07:59.922Z,6.18
2022-08-07T07:10:31.200Z,6.72
2022-08-07T07:13:10.050Z,6.03
2022-08-07T07:15:41.164Z,5.63
2022-08-07T07:18:37.655Z,8.55
2022-08-07T07:21:21.891Z,6.57
2022-08-07T07:24:08.316Z,7.32
2022-08-07T07:26:39.657Z,5.30
2022-08-07T07:29:40.218Z,5.60
2022-08-07T07:32:02.245Z,5.95
2022-08-07T07:34:31.877Z,5.63
2022-08-07T07:37:14.570Z,5.50
2022-08-07T07:39:54.630Z,7.72
2022-08-07T07:42:32.799Z,4.72
2022-08-07T07:45:01.920Z,3.90
2022-08-07T07:47:30.007Z,7.32
2022-08-07T07:50:35.101Z,6.80
2022-08-07T07:52:57.819Z,7.35
2022-08-07T07:55:27.817Z,4.90
2022-08-07T07:58:04.889Z,4.47
2022-08-07T08:00:34.346Z,3.92
2022-08-07T08:03:09.242Z,4.00
2022-08-07T08:05:54.297Z,5.18
2022-08-07T08:08:34.887Z,6.50
2022-08-07T08:11:08.428Z,6.43
2022-08-07T08:13:42.966Z,5.20
2022-08-07T08:16:25.037Z,4.55
2022-08-07T08:18:54.118Z,4.68
2022-08-07T08:21:55.973Z,3.63
2022-08-07T08:24:48.114Z,3.22
2022-08-07T08:27:25.958Z,5.75
2022-08-07T08:30:05.509Z,3.67
2022-08-07T08:32:39.255Z,3.90
2022-08-07T08:35:08.300Z,5.82
2022-08-07T08:38:01.338Z,4.15
2022-08-07T08:40:28.684Z,4.97
2022-08-07T08:43:01.425Z,4.55
2022-08-07T08:45:41.844Z,8.73
2022-08-07T08:48:32.318Z,3.60
2022-08-07T08:51:29.611Z,6.13
2022-08-07T08:54:37.067Z,3.72
2022-08-07T08:57:08.195Z,4.45
2022-08-07T08:59:48.268Z,4.70
2022-08-07T09:02:37.586Z,5.65
2022-08-07T09:05:32.024Z,5.13
2022-08-07T09:08:17.871Z,6.93
2022-08-07T09:10:56.721Z,4.97
2022-08-07T09:13:36.820Z,2.25
2022-08-07T09:16:30.033Z,3.03
2022-08-07T09:19:50.900Z,2.47
2022-08-07T09:22:36.967Z,2.38
2022-08-07T09:25:11.947Z,5.15
2022-08-07T09:27:54.534Z,2.67
2022-08-07T09:30:29.910Z,3.17
2022-08-07T09:33:05.236Z,3.85
2022-08-07T09:36:04.506Z,4.10
2022-08-07T09:38:57.705Z,2.72
2022-08-07T09:44:05.854Z,5.05
2022-08-07T09:47:52.330Z,3.10
2022-08-07T09:50:00.761Z,4.78
2022-08-07T09:52:35.381Z,15.15
2022-08-07T09:55:04.958Z,3.70
2022-08-07T09:57:46.637Z,4.65
2022-08-07T10:00:15.181Z,4.85
2022-08-07T10:02:55.268Z,2.97
2022-08-07T10:05:58.293Z,4.38
2022-08-07T10:08:32.219Z,4.22
2022-08-07T10:11:16.917Z,2.85
2022-08-07T10:14:11.189Z,3.30
2022-08-07T10:16:43.131Z,3.22
2022-08-07T10:19:11.678Z,2.60
2022-08-07T10:22:12.196Z,3.58
2022-08-07T10:24:45.947Z,2.63
2022-08-07T10:27:20.252Z,2.53
2022-08-07T10:29:58.504Z,3.05
2022-08-07T10:32:51.171Z,4.10
2022-08-07T10:35:25.769Z,2.42
2022-08-07T10:38:21.884Z,4.70
2022-08-07T10:40:56.000Z,2.83
2022-08-07T10:43:43.059Z,2.85
2022-08-07T10:46:13.484Z,5.15
2022-08-07T10:48:48.947Z,4.35
2022-08-07T10:51:39.315Z,3.15
2022-08-07T10:54:27.121Z,2.53
2022-08-07T10:57:02.366Z,3.85
2022-08-07T10:59:42.133Z,3.63
2022-08-07T11:02:34.261Z,1.92
2022-08-07T11:05:11.140Z,5.68
2022-08-07T11:07:58.527Z,4.32
2022-08-07T11:10:50.024Z,7.15
2022-08-07T11:14:46.518Z,3.92
2022-08-07T11:16:32.614Z,5.95
2022-08-07T11:19:09.810Z,2.50
2022-08-07T11:21:40.741Z,3.15
2022-08-07T11:24:28.435Z,4.35
2022-08-07T11:27:13.601Z,8.32
2022-08-07T11:29:47.472Z,4.60
2022-08-07T11:32:25.289Z,4.63
2022-08-07T11:34:57.325Z,2.22
2022-08-07T11:37:58.298Z,3.50
2022-08-07T11:40:41.711Z,3.55
2022-08-07T11:43:41.382Z,2.25
2022-08-07T11:46:13.773Z,3.17
2022-08-07T11:49:50.512Z,4.50
2022-08-07T11:51:48.666Z,2.13
2022-08-07T11:54:30.317Z,1.75
2022-08-07T11:57:16.408Z,3.20
2022-08-07T12:00:10.083Z,2.90
2022-08-07T12:02:52.676Z,2.72
2022-08-07T12:05:47.265Z,3.67
2022-08-07T12:08:31.397Z,2.42
2022-08-07T12:11:21.933Z,2.75
2022-08-07T12:13:51.937Z,2.08
2022-08-07T12:16:36.172Z,2.17
2022-08-07T12:19:07.549Z,1.60
2022-08-07T12:22:36.290Z,2.75
2022-08-07T12:25:07.822Z,3.17
2022-08-07T12:28:09.266Z,5.28
2022-08-07T12:30:25.801Z,2.83
2022-08-07T12:33:23.393Z,2.88
2022-08-07T12:35:58.444Z,2.03
2022-08-07T12:38:42.576Z,2.08
2022-08-07T12:41:11.363Z,3.77
2022-08-07T12:44:04.052Z,2.13
2022-08-07T12:46:39.530Z,1.65
2022-08-07T12:49:39.600Z,2.50
2022-08-07T12:52:17.158Z,2.15
2022-08-07T12:55:05.528Z,2.28
2022-08-07T12:57:39.015Z,2.93
2022-08-07T13:00:32.981Z,3.97
2022-08-07T13:03:23.092Z,3.47
2022-08-07T13:06:27.634Z,3.25
2022-08-07T13:10:09.772Z,2.83
2022-08-07T13:12:15.179Z,2.30
2022-08-07T13:14:56.861Z,3.55
2022-08-07T13:17:41.131Z,2.70
2022-08-07T13:20:29.262Z,3.38
2022-08-07T13:22:59.985Z,4.97
2022-08-07T13:26:00.677Z,2.08
2022-08-07T13:28:30.097Z,2.33
2022-08-07T13:31:01.970Z,1.92
2022-08-07T13:34:30.355Z,2.55
2022-08-07T13:36:48.954Z,2.42
2022-08-07T13:39:49.082Z,2.60
2022-08-07T13:42:05.726Z,2.05
2022-08-07T13:44:34.591Z,1.48
2022-08-07T13:47:08.372Z,3.35
2022-08-07T13:50:35.197Z,2.67
2022-08-07T13:52:32.456Z,2.45
2022-08-07T13:55:10.778Z,2.85
2022-08-07T13:57:38.980Z,2.85
2022-08-07T14:00:30.706Z,2.42
2022-08-07T14:02:59.563Z,4.30
2022-08-07T14:05:37.480Z,1.92
2022-08-07T14:08:06.920Z,1.67
2022-08-07T14:10:42.305Z,1.85
2022-08-07T14:13:13.214Z,4.07
2022-08-07T14:15:43.777Z,2.22
2022-08-07T14:18:28.337Z,2.20
2022-08-07T14:21:12.011Z,3.33
2022-08-07T14:24:01.090Z,1.92
2022-08-07T14:26:32.355Z,1.98
2022-08-07T14:29:06.010Z,2.08
2022-08-07T14:31:53.420Z,1.50
2022-08-07T14:34:29.196Z,1.50
2022-08-07T14:36:57.724Z,3.05
2022-08-07T14:40:17.344Z,1.45
2022-08-07T14:42:18.505Z,2.28
2022-08-07T14:44:51.846Z,1.65
2022-08-07T14:47:18.816Z,2.10
2022-08-07T14:49:56.564Z,1.50
2022-08-07T14:52:28.771Z,1.75
2022-08-07T14:54:58.585Z,1.85
2022-08-07T14:57:54.367Z,1.92
2022-08-07T15:00:12.482Z,2.47
2022-08-07T15:02:56.985Z,3.10
2022-08-07T15:05:24.043Z,3.25
2022-08-07T15:07:52.173Z,2.03
2022-08-07T15:10:20.235Z,2.25
2022-08-07T15:12:58.037Z,1.70
2022-08-07T15:15:29.711Z,2.00
2022-08-07T15:18:02.670Z,3.92
2022-08-07T15:20:38.568Z,4.20
2022-08-07T15:25:14.459Z,3.08
2022-08-07T15:26:20.774Z,3.17
2022-08-07T15:28:56.658Z,2.70
2022-08-07T15:32:01.623Z,1.65
2022-08-07T15:34:22.982Z,1.83
2022-08-07T15:37:03.284Z,5.15
2022-08-07T15:42:46.418Z,3.33
2022-08-07T15:45:22.614Z,2.25
2022-08-07T15:48:01.242Z,2.85
2022-08-07T15:50:37.814Z,1.98
2022-08-07T15:53:21.756Z,1.95
2022-08-07T15:55:53.786Z,3.42
2022-08-07T15:58:37.404Z,1.65
2022-08-07T16:01:06.742Z,2.75
2022-08-07T16:03:46.938Z,1.75
2022-08-07T16:06:15.885Z,2.00
2022-08-07T16:08:45.576Z,2.10
2022-08-07T16:11:32.426Z,1.92
2022-08-07T16:14:06.536Z,2.15
2022-08-07T16:16:48.784Z,3.75
2022-08-07T16:19:42.605Z,1.60
2022-08-07T16:22:55.414Z,2.92
2022-08-07T16:25:54.631Z,1.50
2022-08-07T16:30:07.246Z,2.35
2022-08-07T16:31:50.356Z,7.95
2022-08-07T16:34:23.942Z,2.60
2022-08-07T16:37:03.042Z,5.32
2022-08-07T16:39:54.503Z,4.05
2022-08-07T16:42:41.034Z,3.90
2022-08-07T16:45:15.533Z,2.10
2022-08-07T16:48:13.484Z,3.95
2022-08-07T16:51:21.877Z,3.88
2022-08-07T16:54:02.532Z,2.97
2022-08-07T16:56:37.554Z,5.07
2022-08-07T16:59:46.048Z,3.97
2022-08-07T17:02:53.663Z,3.78
2022-08-07T17:06:01.975Z,4.28
2022-08-07T17:08:45.997Z,2.65
2022-08-07T17:11:26.626Z,2.13
2022-08-07T17:14:24.996Z,5.90
2022-08-07T17:16:57.575Z,3.50
2022-08-07T17:22:30.194Z,6.30
2022-08-07T17:25:08.294Z,5.03
2022-08-07T17:27:39.802Z,2.35
2022-08-07T17:30:19.817Z,3.63
2022-08-07T17:32:49.769Z,2.75
2022-08-07T17:35:50.123Z,5.47
2022-08-07T17:38:33.164Z,3.30
2022-08-07T17:42:01.594Z,2.20
2022-08-07T17:44:02.198Z,1.70
2022-08-07T17:46:41.909Z,4.35
2022-08-07T17:49:09.053Z,2.00
2022-08-07T17:51:59.751Z,3.08
2022-08-07T17:54:53.789Z,3.20
2022-08-07T17:57:32.008Z,2.83
2022-08-07T18:00:32.718Z,1.95
2022-08-07T18:03:01.334Z,1.73
2022-08-07T18:06:03.280Z,1.90
2022-08-07T18:08:36.048Z,2.67
2022-08-07T18:12:16.430Z,4.97
2022-08-07T18:14:45.989Z,2.80
2022-08-07T18:18:45.311Z,2.72
2022-08-07T18:21:04.512Z,3.00
2022-08-07T18:23:43.208Z,1.90
2022-08-07T18:26:15.217Z,2.92
2022-08-07T18:28:57.601Z,2.22
2022-08-07T18:31:33.698Z,3.03
2022-08-07T18:34:37.237Z,1.70
2022-08-07T18:37:12.882Z,2.20
2022-08-07T18:40:06.440Z,2.05
2022-08-07T18:42:41.419Z,1.77
2022-08-07T18:45:44.364Z,3.03
2022-08-07T18:48:38.232Z,2.35
2022-08-07T18:52:33.816Z,4.53
2022-08-07T18:54:30.803Z,3.47
2022-08-07T18:57:30.413Z,2.35
2022-08-07T19:00:34.076Z,3.15
2022-08-07T19:05:26.691Z,2.15
2022-08-07T19:08:26.414Z,5.05
2022-08-07T19:10:59.447Z,4.28
2022-08-07T19:13:37.330Z,1.33
2022-08-07T19:17:00.376Z,1.63
2022-08-07T19:18:51.461Z,2.35
2022-08-07T19:21:47.707Z,1.30
2022-08-07T19:24:50.132Z,1.58
2022-08-07T19:28:57.421Z,2.10
2022-08-07T19:30:55.191Z,2.13
2022-08-07T19:33:01.578Z,3.15
2022-08-07T19:35:40.140Z,1.70
2022-08-07T19:38:15.113Z,1.85
2022-08-07T19:40:50.149Z,3.28
2022-08-07T19:43:21.779Z,3.13
2022-08-07T19:46:10.069Z,2.22
2022-08-07T19:48:43.084Z,2.05
2022-08-07T19:51:20.522Z,2.90
2022-08-07T19:54:34.646Z,2.92
2022-08-07T19:58:00.890Z,2.90
2022-08-07T19:59:40.540Z,3.10
2022-08-07T20:02:13.538Z,2.35
2022-08-07T20:08:27.216Z,1.75
2022-08-07T20:11:03.953Z,5.05
2022-08-07T20:13:49.810Z,4.97
2022-08-07T20:16:35.073Z,3.30
2022-08-07T20:19:04.340Z,3.85
2022-08-07T20:21:41.987Z,2.25
2022-08-07T20:24:31.748Z,2.72
2022-08-07T20:27:01.766Z,2.38
2022-08-07T20:29:48.338Z,5.55
2022-08-07T20:32:40.162Z,4.38
2022-08-07T20:35:26.257Z,7.57
2022-08-07T20:37:58.277Z,2.72
2022-08-07T20:40:34.645Z,3.92
2022-08-07T20:43:14.806Z,3.45
2022-08-07T20:46:27.694Z,3.85
2022-08-07T20:48:58.207Z,2.63
2022-08-07T20:51:28.693Z,2.95
2022-08-07T20:54:04.171Z,3.35
2022-08-07T20:56:41.901Z,2.45
2022-08-07T21:00:04.560Z,2.78
2022-08-07T21:02:04.525Z,3.60
2022-08-07T21:04:41.039Z,2.28
2022-08-07T21:07:14.583Z,2.50
2022-08-07T21:09:53.235Z,3.78
2022-08-07T21:12:31.330Z,2.38
2022-08-07T21:14:58.879Z,3.63
2022-08-07T21:18:01.849Z,3.42
2022-08-07T21:20:18.870Z,3.75
2022-08-07T21:22:56.945Z,3.10
2022-08-07T21:25:39.292Z,5.00
2022-08-07T21:28:18.964Z,4.07
2022-08-07T21:31:18.168Z,6.10
2022-08-07T21:34:18.403Z,5.32
2022-08-07T21:36:51.114Z,3.05
2022-08-07T21:39:48.177Z,5.53
2022-08-07T21:42:37.571Z,3.88
2022-08-07T21:47:52.020Z,3.10
2022-08-07T21:50:25.140Z,2.95
2022-08-07T21:53:00.730Z,4.13
2022-08-07T21:55:42.690Z,5.30
2022-08-07T21:58:29.942Z,2.85
2022-08-07T22:01:00.524Z,3.45
2022-08-07T22:03:39.529Z,4.53
2022-08-07T22:06:29.127Z,6.28
2022-08-07T22:09:06.894Z,4.80
2022-08-07T22:12:05.812Z,3.40
2022-08-07T22:14:23.688Z,5.35
2022-08-07T22:17:04.064Z,4.07
2022-08-07T22:19:32.485Z,6.13
2022-08-07T22:22:21.569Z,6.10
2022-08-07T22:25:03.235Z,4.65
2022-08-07T22:28:08.422Z,5.47
2022-08-07T22:30:28.285Z,4.22
2022-08-07T22:33:05.240Z,5.55
2022-08-07T22:35:40.295Z,4.03
2022-08-07T22:38:20.346Z,4.28
2022-08-07T22:40:51.241Z,5.32
2022-08-07T22:43:21.361Z,11.93
2022-08-07T22:46:40.499Z,6.72
2022-08-07T22:49:00.791Z,8.43
2022-08-07T22:51:49.303Z,5.10
2022-08-07T22:54:31.385Z,4.32
2022-08-07T22:57:17.954Z,8.90
2022-08-07T22:59:49.927Z,4.35
2022-08-07T23:02:16.617Z,5.47
2022-08-07T23:04:58.319Z,5.10
2022-08-07T23:07:42.029Z,5.72
2022-08-07T23:10:37.463Z,5.38
2022-08-07T23:13:14.854Z,7.07
2022-08-07T23:16:05.579Z,4.47
2022-08-07T23:18:42.869Z,5.45
2022-08-07T23:21:21.078Z,4.78
2022-08-07T23:24:11.697Z,6.75
2022-08-07T23:26:50.341Z,5.90
2022-08-07T23:30:38.976Z,6.35
2022-08-07T23:34:19.740Z,7.90
2022-08-07T23:35:27.121Z,9.70
2022-08-07T23:38:11.571Z,5.40
2022-08-07T23:43:18.926Z,7.82
2022-08-07T23:46:02.777Z,7.28
2022-08-07T23:48:47.263Z,6.78
2022-08-07T23:53:08.780Z,9.25
2022-08-07T23:54:19.841Z,7.85
2022-08-07T23:57:09.555Z,6.30
